Time,TemperatureF,DewpointF,PressureIn,WindDirection,WindDirectionDegrees,WindSpeedMPH,WindSpeedGustMPH,Humidity,HourlyPrecipIn,Conditions,Clouds,dailyrainin,SoftwareType,DateUTC
2013-02-28 00:00:00,33.6,29.3,29.62,SSW,202,2.0,7.0,84,0.00,RA,,0.00,WeatherDisplay:10.37,2013-02-28 05:00:00,
2013-02-28 00:01:00,33.6,29.3,29.62,WSW,248,6.9,6.9,84,0.00,RA,,0.00,WeatherDisplay:10.37,2013-02-28 05:01:00,
2013-02-28 00:06:00,33.6,29.3,29.62,South,180,2.3,2.6,84,0.00,RA,,0.00,WeatherDisplay:10.37,2013-02-28 05:06:00,
2013-02-28 00:11:00,33.6,29.3,29.62,West,270,4.6,4.6,84,0.00,CLR,,0.00,WeatherDisplay:10.37,2013-02-28 05:11:00,
2013-02-28 00:16:00,33.6,29.3,29.62,South,180,4.6,4.6,84,0.00,CLR,,0.00,WeatherDisplay:10.37,2013-02-28 05:16:00,
2013-02-28 00:21:00,33.6,29.3,29.61,WSW,248,3.5,3.5,84,0.00,CLR,,0.00,WeatherDisplay:10.37,2013-02-28 05:21:00,
2013-02-28 00:26:00,33.6,29.3,29.61,South,180,2.3,2.4,84,0.00,CLR,,0.00,WeatherDisplay:10.37,2013-02-28 05:26:00,
2013-02-28 00:31:00,33.6,29.3,29.61,WSW,248,3.5,3.5,84,0.00,CLR,,0.00,WeatherDisplay:10.37,2013-02-28 05:31:00,
2013-02-28 00:36:00,33.6,29.3,29.61,SW,225,4.6,4.6,84,0.00,CLR,,0.00,WeatherDisplay:10.37,2013-02-28 05:36:00,
2013-02-28 00:41:00,33.6,29.3,29.61,SSW,202,2.3,2.3,84,0.00,CLR,,0.00,WeatherDisplay:10.37,2013-02-28 05:41:00,
2013-02-28 00:46:00,33.6,29.3,29.61,SSE,158,6.9,6.9,84,0.00,CLR,,0.00,WeatherDisplay:10.37,2013-02-28 05:46:00,
2013-02-28 00:51:00,33.4,29.1,29.61,WSW,248,2.3,2.3,84,0.00,CLR,,0.00,WeatherDisplay:10.37,2013-02-28 05:51:00,
2013-02-28 00:56:00,33.6,29.3,29.61,WSW,248,2.3,2.3,84,0.00,CLR,,0.00,WeatherDisplay:10.37,2013-02-28 05:56:00,
2013-02-28 01:01:00,33.4,29.1,29.61,WSW,248,4.6,4.6,84,0.00,CLR,,0.00,WeatherDisplay:10.37,2013-02-28 06:01:00,
2013-02-28 01:06:00,33.4,29.1,29.61,NNE,22,4.6,4.6,84,0.00,CLR,,0.00,WeatherDisplay:10.37,2013-02-28 06:06:00,
2013-02-28 01:11:00,33.4,29.1,29.61,WSW,248,2.3,2.5,84,0.00,CLR,,0.00,WeatherDisplay:10.37,2013-02-28 06:11:00,
2013-02-28 01:16:00,33.4,29.1,29.61,SSE,158,2.3,2.3,84,0.00,CLR,,0.00,WeatherDisplay:10.37,2013-02-28 06:16:00,
2013-02-28 01:21:00,33.4,29.1,29.60,SSW,202,4.6,4.6,84,0.00,CLR,,0.00,WeatherDisplay:10.37,2013-02-28 06:21:00,
2013-02-28 01:26:00,33.4,29.1,29.60,WSW,248,6.9,6.9,84,0.00,CLR,,0.00,WeatherDisplay:10.37,2013-02-28 06:26:00,
2013-02-28 01:31:00,33.4,29.1,29.60,SW,225,4.6,4.6,84,0.00,CLR,,0.00,WeatherDisplay:10.37,2013-02-28 06:31:00,
2013-02-28 01:36:00,33.4,29.1,29.60,South,180,4.6,4.6,84,0.00,CLR,,0.00,WeatherDisplay:10.37,2013-02-28 06:36:00,
2013-02-28 01:41:00,33.4,29.1,29.60,West,270,2.3,2.6,84,0.00,CLR,,0.00,WeatherDisplay:10.37,2013-02-28 06:41:00,
2013-02-28 01:46:00,33.4,29.1,29.60,WNW,292,3.7,3.7,84,0.00,CLR,,0.00,WeatherDisplay:10.37,2013-02-28 06:46:00,
2013-02-28 01:51:00,33.4,29.1,29.60,West,270,4.3,4.3,84,0.00,CLR,,0.00,WeatherDisplay:10.37,2013-02-28 06:51:00,
2013-02-28 01:56:00,33.4,29.1,29.60,SE,135,2.3,2.6,84,0.00,CLR,,0.00,WeatherDisplay:10.37,2013-02-28 06:56:00,
2013-02-28 02:01:00,33.4,29.1,29.59,SW,225,4.6,4.6,84,0.00,CLR,,0.00,WeatherDisplay:10.37,2013-02-28 07:01:00,
2013-02-28 02:06:00,33.3,28.9,29.59,WSW,248,3.5,3.5,84,0.00,CLR,,0.00,WeatherDisplay:10.37,2013-02-28 07:06:00,
2013-02-28 02:11:00,33.3,28.9,29.59,SW,225,2.3,2.3,84,0.00,CLR,,0.00,WeatherDisplay:10.37,2013-02-28 07:11:00,
2013-02-28 02:16:00,33.3,28.9,29.59,SW,225,2.3,2.3,84,0.00,CLR,,0.00,WeatherDisplay:10.37,2013-02-28 07:16:00,
2013-02-28 02:21:00,33.3,28.9,29.59,South,180,4.6,4.6,84,0.00,CLR,,0.00,WeatherDisplay:10.37,2013-02-28 07:21:00,
2013-02-28 02:26:00,33.3,28.9,29.59,SW,225,4.6,4.6,84,0.00,CLR,,0.00,WeatherDisplay:10.37,2013-02-28 07:26:00,
2013-02-28 02:31:00,33.3,28.9,29.59,SSW,202,2.3,2.3,84,0.00,CLR,,0.00,WeatherDisplay:10.37,2013-02-28 07:31:00,
2013-02-28 02:36:00,33.3,28.9,29.59,WSW,248,5.9,5.9,84,0.00,CLR,,0.00,WeatherDisplay:10.37,2013-02-28 07:36:00,
2013-02-28 02:41:00,33.3,28.9,29.59,WSW,248,4.6,4.6,84,0.00,CLR,,0.00,WeatherDisplay:10.37,2013-02-28 07:41:00,
2013-02-28 02:46:00,33.3,28.9,29.59,WSW,248,4.6,4.6,84,0.00,CLR,,0.00,WeatherDisplay:10.37,2013-02-28 07:46:00,
2013-02-28 02:51:00,33.1,28.8,29.59,WSW,248,3.5,3.5,84,0.00,CLR,,0.00,WeatherDisplay:10.37,2013-02-28 07:51:00,
2013-02-28 02:56:00,33.1,28.8,29.59,WSW,248,3.5,3.5,84,0.00,CLR,,0.00,WeatherDisplay:10.37,2013-02-28 07:56:00,
2013-02-28 03:01:00,33.1,28.8,29.58,NW,315,5.8,5.8,84,0.00,CLR,,0.00,WeatherDisplay:10.37,2013-02-28 08:01:00,
2013-02-28 03:06:00,32.9,28.6,29.58,West,270,4.6,4.6,84,0.00,CLR,,0.00,WeatherDisplay:10.37,2013-02-28 08:06:00,
2013-02-28 03:11:00,32.9,28.6,29.58,WSW,248,5.8,5.8,84,0.00,CLR,,0.00,WeatherDisplay:10.37,2013-02-28 08:11:00,
2013-02-28 03:16:00,32.9,28.6,29.58,West,270,2.3,2.3,84,0.00,CLR,,0.00,WeatherDisplay:10.37,2013-02-28 08:16:00,
2013-02-28 03:21:00,32.9,28.6,29.57,SSE,158,2.3,2.3,84,0.00,CLR,,0.00,WeatherDisplay:10.37,2013-02-28 08:21:00,
2013-02-28 03:26:00,32.9,28.9,29.57,South,180,2.4,2.4,85,0.00,CLR,,0.00,WeatherDisplay:10.37,2013-02-28 08:26:00,
2013-02-28 03:31:00,32.9,28.9,29.57,SW,225,2.3,2.3,85,0.00,CLR,,0.00,WeatherDisplay:10.37,2013-02-28 08:31:00,
2013-02-28 03:36:00,32.9,28.9,29.57,South,180,5.8,5.8,85,0.00,CLR,,0.00,WeatherDisplay:10.37,2013-02-28 08:36:00,
2013-02-28 03:42:00,32.9,28.9,29.57,WSW,248,9.2,9.2,85,0.00,CLR,,0.00,WeatherDisplay:10.37,2013-02-28 08:42:00,
2013-02-28 03:47:00,32.9,28.9,29.57,SW,225,3.5,3.5,85,0.00,CLR,,0.00,WeatherDisplay:10.37,2013-02-28 08:47:00,
2013-02-28 03:52:00,32.7,28.7,29.57,SW,225,5.8,5.8,85,0.00,CLR,,0.00,WeatherDisplay:10.37,2013-02-28 08:52:00,
2013-02-28 03:57:00,32.7,28.7,29.57,West,270,6.9,6.9,85,0.00,CLR,,0.00,WeatherDisplay:10.37,2013-02-28 08:57:00,
2013-02-28 04:02:00,32.7,28.7,29.57,WSW,248,3.5,3.5,85,0.00,CLR,,0.00,WeatherDisplay:10.37,2013-02-28 09:02:00,
2013-02-28 04:07:00,32.7,28.7,29.57,SSW,202,4.6,4.6,85,0.00,CLR,,0.00,WeatherDisplay:10.37,2013-02-28 09:07:00,
2013-02-28 04:12:00,32.7,28.7,29.57,West,270,2.3,2.6,85,0.00,CLR,,0.00,WeatherDisplay:10.37,2013-02-28 09:12:00,
2013-02-28 04:17:00,32.5,28.5,29.57,WSW,248,4.8,4.8,85,0.00,CLR,,0.00,WeatherDisplay:10.37,2013-02-28 09:17:00,
2013-02-28 04:22:00,32.5,28.5,29.57,WSW,248,2.3,2.3,85,0.00,CLR,,0.00,WeatherDisplay:10.37,2013-02-28 09:22:00,
2013-02-28 04:27:00,32.5,28.5,29.57,West,270,0.0,1.7,85,0.00,CLR,,0.00,WeatherDisplay:10.37,2013-02-28 09:27:00,
2013-02-28 04:32:00,32.5,28.5,29.57,WSW,248,5.2,5.2,85,0.00,CLR,,0.00,WeatherDisplay:10.37,2013-02-28 09:32:00,
2013-02-28 04:37:00,32.5,28.5,29.57,NW,315,5.8,5.8,85,0.00,CLR,,0.00,WeatherDisplay:10.37,2013-02-28 09:37:00,
2013-02-28 04:42:00,32.5,28.5,29.58,West,270,3.5,3.5,85,0.00,CLR,,0.00,WeatherDisplay:10.37,2013-02-28 09:42:00,
2013-02-28 04:47:00,32.5,28.5,29.58,West,270,3.5,3.5,85,0.00,CLR,,0.00,WeatherDisplay:10.37,2013-02-28 09:47:00,
2013-02-28 04:52:00,32.5,28.5,29.58,WSW,248,5.8,5.8,85,0.00,CLR,,0.00,WeatherDisplay:10.37,2013-02-28 09:52:00,
2013-02-28 04:57:00,32.5,28.5,29.58,WSW,248,6.9,6.9,85,0.00,CLR,,0.00,WeatherDisplay:10.37,2013-02-28 09:57:00,
2013-02-28 05:02:00,32.5,28.5,29.58,SW,225,4.6,4.6,85,0.00,CLR,,0.00,WeatherDisplay:10.37,2013-02-28 10:02:00,
2013-02-28 05:07:00,32.5,28.5,29.58,NNW,338,3.5,3.5,85,0.00,CLR,,0.00,WeatherDisplay:10.37,2013-02-28 10:07:00,
2013-02-28 05:12:00,32.5,28.5,29.58,NNW,338,2.3,2.3,85,0.00,CLR,,0.00,WeatherDisplay:10.37,2013-02-28 10:12:00,
2013-02-28 05:17:00,32.5,28.5,29.58,NNE,22,3.5,3.5,85,0.00,CLR,,0.00,WeatherDisplay:10.37,2013-02-28 10:17:00,
2013-02-28 05:22:00,32.5,28.5,29.58,SW,225,5.8,5.8,85,0.00,CLR,,0.00,WeatherDisplay:10.37,2013-02-28 10:22:00,
2013-02-28 05:27:00,32.5,28.5,29.58,West,270,4.6,4.6,85,0.00,CLR,,0.00,WeatherDisplay:10.37,2013-02-28 10:27:00,
2013-02-28 05:32:00,32.5,28.5,29.58,WSW,248,4.6,4.6,85,0.00,CLR,,0.00,WeatherDisplay:10.37,2013-02-28 10:32:00,
2013-02-28 05:37:00,32.5,28.5,29.57,NNE,22,5.8,5.8,85,0.00,CLR,,0.00,WeatherDisplay:10.37,2013-02-28 10:37:00,
2013-02-28 05:42:00,32.5,28.5,29.57,WSW,248,4.8,4.8,85,0.00,CLR,,0.00,WeatherDisplay:10.37,2013-02-28 10:42:00,
2013-02-28 05:47:00,32.5,28.5,29.57,SW,225,2.3,3.1,85,0.00,CLR,,0.00,WeatherDisplay:10.37,2013-02-28 10:47:00,
2013-02-28 05:52:00,32.5,28.5,29.57,WSW,248,5.8,5.8,85,0.00,CLR,,0.00,WeatherDisplay:10.37,2013-02-28 10:52:00,
2013-02-28 05:57:00,32.5,28.5,29.57,ENE,68,4.6,4.6,85,0.00,CLR,,0.00,WeatherDisplay:10.37,2013-02-28 10:57:00,
2013-02-28 06:02:00,32.4,28.4,29.57,WSW,248,3.5,3.5,85,0.00,CLR,,0.00,WeatherDisplay:10.37,2013-02-28 11:02:00,
2013-02-28 06:07:00,32.4,28.4,29.57,SW,225,3.5,3.5,85,0.00,CLR,,0.00,WeatherDisplay:10.37,2013-02-28 11:07:00,
2013-02-28 06:12:00,32.4,28.4,29.57,NNW,338,3.5,3.5,85,0.00,CLR,,0.00,WeatherDisplay:10.37,2013-02-28 11:12:00,
2013-02-28 06:17:00,32.4,28.4,29.58,West,270,6.9,6.9,85,0.00,CLR,,0.00,WeatherDisplay:10.37,2013-02-28 11:17:00,
2013-02-28 06:22:00,32.5,28.5,29.58,West,270,5.8,5.8,85,0.00,CLR,,0.00,WeatherDisplay:10.37,2013-02-28 11:22:00,
2013-02-28 06:27:00,32.5,28.5,29.58,SSW,202,4.6,4.6,85,0.00,CLR,,0.00,WeatherDisplay:10.37,2013-02-28 11:27:00,
2013-02-28 06:32:00,32.4,28.4,29.58,SW,225,5.8,0.0,85,0.00,CLR,,0.00,WeatherDisplay:10.37,2013-02-28 11:32:00,
2013-02-28 06:37:00,32.4,28.4,29.58,West,270,6.9,6.9,85,0.00,CLR,,0.00,WeatherDisplay:10.37,2013-02-28 11:37:00,
2013-02-28 06:42:00,32.4,28.4,29.58,SW,225,3.2,3.2,85,0.00,CLR,,0.00,WeatherDisplay:10.37,2013-02-28 11:42:00,
2013-02-28 06:47:00,32.2,28.2,29.58,West,270,3.5,3.5,85,0.00,CLR,,0.00,WeatherDisplay:10.37,2013-02-28 11:47:00,
2013-02-28 06:52:00,32.2,28.2,29.58,WSW,248,2.3,3.0,85,0.00,CLR,,0.00,WeatherDisplay:10.37,2013-02-28 11:52:00,
2013-02-28 06:57:00,32.2,28.2,29.59,West,270,6.3,6.3,85,0.00,CLR,,0.00,WeatherDisplay:10.37,2013-02-28 11:57:00,
2013-02-28 07:02:00,32.2,28.2,29.59,SW,225,9.2,9.2,85,0.00,CLR,,0.00,WeatherDisplay:10.37,2013-02-28 12:02:00,
2013-02-28 07:07:00,32.2,28.2,29.59,WSW,248,4.6,4.6,85,0.00,CLR,,0.00,WeatherDisplay:10.37,2013-02-28 12:07:00,
2013-02-28 07:12:00,32.2,28.2,29.59,WSW,248,3.5,3.5,85,0.00,CLR,,0.00,WeatherDisplay:10.37,2013-02-28 12:12:00,
2013-02-28 07:17:00,32.4,28.4,29.59,WSW,248,2.6,2.6,85,0.00,CLR,,0.00,WeatherDisplay:10.37,2013-02-28 12:17:00,
2013-02-28 07:22:00,32.2,28.2,29.59,WSW,248,1.1,2.9,85,0.00,CLR,,0.00,WeatherDisplay:10.37,2013-02-28 12:22:00,
2013-02-28 07:27:00,32.4,28.4,29.59,WSW,248,4.6,4.6,85,0.00,CLR,,0.00,WeatherDisplay:10.37,2013-02-28 12:27:00,
2013-02-28 07:32:00,32.4,28.4,29.59,SW,225,1.1,2.4,85,0.00,CLR,,0.00,WeatherDisplay:10.37,2013-02-28 12:32:00,
2013-02-28 07:37:00,32.4,28.4,29.59,WSW,248,4.6,4.6,85,0.00,CLR,,0.00,WeatherDisplay:10.37,2013-02-28 12:37:00,
2013-02-28 07:42:00,32.4,28.4,29.59,West,270,2.2,2.5,85,0.00,CLR,,0.00,WeatherDisplay:10.37,2013-02-28 12:42:00,
2013-02-28 07:47:00,32.4,28.4,29.59,SSW,202,3.5,3.5,85,0.00,CLR,,0.00,WeatherDisplay:10.37,2013-02-28 12:47:00,
2013-02-28 07:52:00,32.5,28.5,29.59,WNW,292,8.1,8.1,85,0.00,CLR,,0.00,WeatherDisplay:10.37,2013-02-28 12:52:00,
2013-02-28 07:57:00,32.5,28.5,29.59,WSW,248,8.1,8.1,85,0.00,CLR,,0.00,WeatherDisplay:10.37,2013-02-28 12:57:00,
2013-02-28 08:02:00,32.5,28.5,29.59,West,270,2.3,2.6,85,0.00,CLR,,0.00,WeatherDisplay:10.37,2013-02-28 13:02:00,
2013-02-28 08:07:00,32.5,28.5,29.59,NE,45,2.3,2.3,85,0.00,CLR,,0.00,WeatherDisplay:10.37,2013-02-28 13:07:00,
2013-02-28 08:12:00,32.7,28.7,29.59,SW,225,3.5,3.5,85,0.00,CLR,,0.00,WeatherDisplay:10.37,2013-02-28 13:12:00,
2013-02-28 08:17:00,32.5,28.5,29.59,WSW,248,2.3,2.3,85,0.00,CLR,,0.00,WeatherDisplay:10.37,2013-02-28 13:17:00,
2013-02-28 08:22:00,32.5,28.5,29.59,WSW,248,5.8,5.8,85,0.00,CLR,,0.00,WeatherDisplay:10.37,2013-02-28 13:22:00,
2013-02-28 08:27:00,32.7,28.7,29.59,West,270,3.7,3.7,85,0.00,CLR,,0.00,WeatherDisplay:10.37,2013-02-28 13:27:00,
2013-02-28 08:32:00,32.7,28.7,29.59,SW,225,5.3,5.3,85,0.00,CLR,,0.00,WeatherDisplay:10.37,2013-02-28 13:32:00,
2013-02-28 08:37:00,32.5,28.5,29.60,WNW,292,2.3,2.4,85,0.00,CLR,,0.00,WeatherDisplay:10.37,2013-02-28 13:37:00,
2013-02-28 08:42:00,32.7,28.7,29.60,WSW,248,6.9,6.9,85,0.00,CLR,,0.00,WeatherDisplay:10.37,2013-02-28 13:42:00,
2013-02-28 08:47:00,32.7,28.7,29.60,NNW,338,3.5,3.5,85,0.00,CLR,,0.00,WeatherDisplay:10.37,2013-02-28 13:47:00,
2013-02-28 08:52:00,32.9,28.9,29.60,West,270,3.5,3.5,85,0.00,CLR,,0.00,WeatherDisplay:10.37,2013-02-28 13:52:00,
2013-02-28 08:58:00,32.9,28.9,29.59,WSW,248,4.3,4.3,85,0.00,CLR,,0.00,WeatherDisplay:10.37,2013-02-28 13:58:00,
2013-02-28 09:03:00,32.9,28.9,29.59,SSW,202,5.8,5.8,85,0.00,CLR,,0.00,WeatherDisplay:10.37,2013-02-28 14:03:00,
2013-02-28 09:08:00,32.9,28.9,29.59,West,270,4.6,4.6,85,0.00,CLR,,0.00,WeatherDisplay:10.37,2013-02-28 14:08:00,
2013-02-28 09:13:00,33.1,29.1,29.59,West,270,4.6,4.6,85,0.00,CLR,,0.00,WeatherDisplay:10.37,2013-02-28 14:13:00,
2013-02-28 09:18:00,32.9,28.9,29.60,WNW,292,3.7,3.7,85,0.00,CLR,,0.00,WeatherDisplay:10.37,2013-02-28 14:18:00,
2013-02-28 09:23:00,32.9,28.9,29.60,SW,225,6.9,6.9,85,0.00,CLR,,0.00,WeatherDisplay:10.37,2013-02-28 14:23:00,
2013-02-28 09:28:00,32.9,28.9,29.60,WSW,248,3.5,3.5,85,0.00,CLR,,0.00,WeatherDisplay:10.37,2013-02-28 14:28:00,
2013-02-28 09:33:00,32.9,28.9,29.60,WSW,248,5.8,5.8,85,0.00,CLR,,0.00,WeatherDisplay:10.37,2013-02-28 14:33:00,
2013-02-28 09:38:00,32.9,28.9,29.60,WSW,248,9.2,9.2,85,0.00,CLR,,0.00,WeatherDisplay:10.37,2013-02-28 14:38:00,
2013-02-28 09:43:00,33.3,29.2,29.60,SW,225,2.3,3.0,85,0.00,CLR,,0.00,WeatherDisplay:10.37,2013-02-28 14:43:00,
2013-02-28 09:48:00,33.3,29.2,29.60,West,270,4.6,4.6,85,0.00,CLR,,0.00,WeatherDisplay:10.37,2013-02-28 14:48:00,
2013-02-28 09:53:00,33.4,29.4,29.60,WNW,292,5.8,5.8,85,0.00,CLR,,0.00,WeatherDisplay:10.37,2013-02-28 14:53:00,
2013-02-28 09:58:00,33.6,29.6,29.60,WNW,292,4.6,4.6,85,0.00,CLR,,0.00,WeatherDisplay:10.37,2013-02-28 14:58:00,
2013-02-28 10:03:00,33.8,29.8,29.60,SW,225,3.5,3.5,85,0.00,CLR,,0.00,WeatherDisplay:10.37,2013-02-28 15:03:00,
2013-02-28 10:08:00,33.8,29.8,29.60,West,270,6.9,6.9,85,0.00,CLR,,0.00,WeatherDisplay:10.37,2013-02-28 15:08:00,
2013-02-28 10:13:00,33.8,29.8,29.60,WSW,248,2.3,2.6,85,0.00,CLR,,0.00,WeatherDisplay:10.37,2013-02-28 15:13:00,
2013-02-28 10:18:00,33.8,29.5,29.59,WSW,248,3.5,3.5,84,0.00,CLR,,0.00,WeatherDisplay:10.37,2013-02-28 15:18:00,
2013-02-28 10:23:00,33.8,29.5,29.59,NW,315,4.6,4.6,84,0.00,CLR,,0.00,WeatherDisplay:10.37,2013-02-28 15:23:00,
2013-02-28 10:28:00,33.8,29.5,29.59,SW,225,5.8,5.8,84,0.00,CLR,,0.00,WeatherDisplay:10.37,2013-02-28 15:28:00,
2013-02-28 10:33:00,34.0,29.7,29.59,WSW,248,4.6,4.6,84,0.00,CLR,,0.00,WeatherDisplay:10.37,2013-02-28 15:33:00,
2013-02-28 10:38:00,33.8,29.5,29.60,WSW,248,6.9,6.9,84,0.00,CLR,,0.00,WeatherDisplay:10.37,2013-02-28 15:38:00,
2013-02-28 10:43:00,33.6,29.3,29.60,West,270,2.3,3.1,84,0.00,CLR,,0.00,WeatherDisplay:10.37,2013-02-28 15:43:00,
2013-02-28 10:48:00,33.6,29.3,29.60,WSW,248,4.6,4.6,84,0.00,CLR,,0.00,WeatherDisplay:10.37,2013-02-28 15:48:00,
2013-02-28 10:53:00,33.6,29.3,29.60,WSW,248,6.9,6.9,84,0.00,CLR,,0.00,WeatherDisplay:10.37,2013-02-28 15:53:00,
2013-02-28 10:58:00,33.8,29.5,29.60,South,180,5.8,5.8,84,0.00,CLR,,0.00,WeatherDisplay:10.37,2013-02-28 15:58:00,
2013-02-28 11:03:00,33.6,29.3,29.60,WSW,248,3.5,3.5,84,0.00,CLR,,0.00,WeatherDisplay:10.37,2013-02-28 16:03:00,
2013-02-28 11:08:00,34.3,30.0,29.60,SW,225,9.2,9.2,84,0.00,CLR,,0.00,WeatherDisplay:10.37,2013-02-28 16:08:00,
2013-02-28 11:13:00,34.3,30.0,29.60,SW,225,2.3,2.8,84,0.00,CLR,,0.00,WeatherDisplay:10.37,2013-02-28 16:13:00,
2013-02-28 11:18:00,34.3,30.0,29.61,SW,225,2.3,2.9,84,0.00,CLR,,0.00,WeatherDisplay:10.37,2013-02-28 16:18:00,
2013-02-28 11:23:00,34.3,30.0,29.61,SW,225,0.0,1.1,84,0.00,CLR,,0.00,WeatherDisplay:10.37,2013-02-28 16:23:00,
2013-02-28 11:28:00,34.9,30.5,29.61,WSW,248,0.0,0.0,84,0.00,CLR,,0.00,WeatherDisplay:10.37,2013-02-28 16:28:00,
2013-02-28 11:33:00,34.7,30.4,29.61,WNW,292,0.0,0.0,84,0.00,CLR,,0.00,WeatherDisplay:10.37,2013-02-28 16:33:00,
2013-02-28 11:38:00,34.9,30.2,29.61,West,270,0.0,0.0,83,0.00,CLR,,0.00,WeatherDisplay:10.37,2013-02-28 16:38:00,
2013-02-28 11:43:00,34.9,30.2,29.61,WNW,292,4.8,4.8,83,0.03,RA,,0.03,WeatherDisplay:10.37,2013-02-28 16:43:00,
2013-02-28 11:48:00,34.7,30.1,29.61,South,180,5.8,5.8,83,0.03,RA,,0.03,WeatherDisplay:10.37,2013-02-28 16:48:00,
2013-02-28 11:53:00,34.7,30.1,29.61,WSW,248,4.6,4.6,83,0.03,CLR,,0.03,WeatherDisplay:10.37,2013-02-28 16:53:00,
2013-02-28 11:58:00,34.7,30.1,29.61,South,180,3.5,3.6,83,0.03,CLR,,0.03,WeatherDisplay:10.37,2013-02-28 16:58:00,
2013-02-28 12:03:00,34.3,29.7,29.61,WSW,248,5.8,5.8,83,0.03,CLR,,0.03,WeatherDisplay:10.37,2013-02-28 17:03:00,
2013-02-28 12:08:00,34.3,29.7,29.61,WSW,248,6.9,6.9,83,0.03,CLR,,0.03,WeatherDisplay:10.37,2013-02-28 17:08:00,
2013-02-28 12:13:00,34.2,29.5,29.61,WSW,248,3.5,3.5,83,0.03,CLR,,0.03,WeatherDisplay:10.37,2013-02-28 17:13:00,
2013-02-28 12:18:00,34.0,29.4,29.61,WSW,248,5.6,5.6,83,0.03,CLR,,0.03,WeatherDisplay:10.37,2013-02-28 17:18:00,
2013-02-28 12:23:00,33.8,29.2,29.61,SW,225,4.6,4.6,83,0.03,CLR,,0.03,WeatherDisplay:10.37,2013-02-28 17:23:00,
2013-02-28 12:28:00,33.8,29.2,29.61,West,270,5.8,5.8,83,0.03,CLR,,0.03,WeatherDisplay:10.37,2013-02-28 17:28:00,
2013-02-28 12:33:00,33.6,29.0,29.61,WNW,292,8.1,8.1,83,0.03,CLR,,0.03,WeatherDisplay:10.37,2013-02-28 17:33:00,
2013-02-28 12:38:00,33.6,29.0,29.61,SSW,202,4.6,4.6,83,0.03,CLR,,0.03,WeatherDisplay:10.37,2013-02-28 17:38:00,
2013-02-28 12:43:00,33.8,29.2,29.61,SW,225,4.6,4.6,83,0.00,CLR,,0.03,WeatherDisplay:10.37,2013-02-28 17:43:00,
2013-02-28 12:48:00,33.8,29.2,29.61,West,270,4.6,4.6,83,0.00,CLR,,0.03,WeatherDisplay:10.37,2013-02-28 17:48:00,
2013-02-28 12:53:00,33.8,29.2,29.61,WNW,292,3.5,3.5,83,0.00,CLR,,0.03,WeatherDisplay:10.37,2013-02-28 17:53:00,
2013-02-28 12:58:00,34.0,29.4,29.61,West,270,3.5,3.5,83,0.00,CLR,,0.03,WeatherDisplay:10.37,2013-02-28 17:58:00,
2013-02-28 13:03:00,34.2,29.5,29.61,WSW,248,3.5,3.5,83,0.00,CLR,,0.03,WeatherDisplay:10.37,2013-02-28 18:03:00,
2013-02-28 13:08:00,34.3,29.7,29.61,SW,225,6.9,6.9,83,0.00,CLR,,0.03,WeatherDisplay:10.37,2013-02-28 18:08:00,
2013-02-28 13:13:00,34.3,29.7,29.61,WSW,248,8.1,8.1,83,0.00,CLR,,0.03,WeatherDisplay:10.37,2013-02-28 18:13:00,
2013-02-28 13:18:00,34.3,29.7,29.61,West,270,4.6,4.6,83,0.00,CLR,,0.03,WeatherDisplay:10.37,2013-02-28 18:18:00,
2013-02-28 13:23:00,34.3,29.7,29.61,West,270,3.9,3.9,83,0.00,CLR,,0.03,WeatherDisplay:10.37,2013-02-28 18:23:00,
2013-02-28 13:28:00,34.3,29.7,29.61,WNW,292,3.5,3.5,83,0.00,CLR,,0.03,WeatherDisplay:10.37,2013-02-28 18:28:00,
2013-02-28 13:33:00,34.3,29.7,29.61,WSW,248,3.5,3.5,83,0.00,CLR,,0.03,WeatherDisplay:10.37,2013-02-28 18:33:00,
2013-02-28 13:38:00,34.3,29.7,29.62,West,270,6.9,6.9,83,0.00,CLR,,0.03,WeatherDisplay:10.37,2013-02-28 18:38:00,
2013-02-28 13:43:00,34.3,29.7,29.62,West,270,6.9,6.9,83,0.00,CLR,,0.03,WeatherDisplay:10.37,2013-02-28 18:43:00,
2013-02-28 13:49:00,34.3,29.7,29.62,ENE,68,4.6,4.6,83,0.00,CLR,,0.03,WeatherDisplay:10.37,2013-02-28 18:49:00,
2013-02-28 13:54:00,34.3,29.7,29.62,ENE,68,4.6,4.6,83,0.00,CLR,,0.03,WeatherDisplay:10.37,2013-02-28 18:54:00,
2013-02-28 13:59:00,34.3,29.7,29.61,West,270,2.0,2.5,83,0.00,CLR,,0.03,WeatherDisplay:10.37,2013-02-28 18:59:00,
2013-02-28 14:04:00,34.3,29.7,29.61,West,270,3.5,3.5,83,0.00,CLR,,0.03,WeatherDisplay:10.37,2013-02-28 19:04:00,
2013-02-28 14:09:00,34.2,29.5,29.61,WSW,248,3.5,3.5,83,0.00,CLR,,0.03,WeatherDisplay:10.37,2013-02-28 19:09:00,
2013-02-28 14:14:00,34.2,29.5,29.61,South,180,4.6,4.6,83,0.00,CLR,,0.03,WeatherDisplay:10.37,2013-02-28 19:14:00,
2013-02-28 14:19:00,33.8,29.2,29.62,SW,225,4.6,4.6,83,0.00,CLR,,0.03,WeatherDisplay:10.37,2013-02-28 19:19:00,
2013-02-28 14:24:00,34.2,29.5,29.62,WSW,248,2.8,2.8,83,0.00,CLR,,0.03,WeatherDisplay:10.37,2013-02-28 19:24:00,
2013-02-28 14:29:00,34.3,29.7,29.62,NW,315,5.8,5.8,83,0.00,CLR,,0.03,WeatherDisplay:10.37,2013-02-28 19:29:00,
2013-02-28 14:34:00,34.3,29.7,29.62,SSW,202,4.6,4.6,83,0.00,CLR,,0.03,WeatherDisplay:10.37,2013-02-28 19:34:00,
2013-02-28 14:39:00,34.2,29.5,29.62,West,270,2.3,2.5,83,0.00,CLR,,0.03,WeatherDisplay:10.37,2013-02-28 19:39:00,
2013-02-28 14:44:00,34.3,29.7,29.62,SSW,202,3.5,3.5,83,0.00,CLR,,0.03,WeatherDisplay:10.37,2013-02-28 19:44:00,
2013-02-28 14:49:00,34.3,29.7,29.62,West,270,4.6,4.6,83,0.00,CLR,,0.03,WeatherDisplay:10.37,2013-02-28 19:49:00,
2013-02-28 14:54:00,34.3,29.7,29.62,WSW,248,2.3,2.5,83,0.00,CLR,,0.03,WeatherDisplay:10.37,2013-02-28 19:54:00,
2013-02-28 14:59:00,34.3,29.7,29.63,West,270,2.3,2.3,83,0.00,CLR,,0.03,WeatherDisplay:10.37,2013-02-28 19:59:00,
2013-02-28 15:04:00,34.3,29.7,29.63,South,180,3.5,3.5,83,0.00,CLR,,0.03,WeatherDisplay:10.37,2013-02-28 20:04:00,
2013-02-28 15:09:00,34.3,29.7,29.63,West,270,6.9,6.9,83,0.00,CLR,,0.03,WeatherDisplay:10.37,2013-02-28 20:09:00,
2013-02-28 15:14:00,34.3,29.7,29.63,WSW,248,1.1,2.0,83,0.00,CLR,,0.03,WeatherDisplay:10.37,2013-02-28 20:14:00,
2013-02-28 15:19:00,34.3,29.7,29.64,NW,315,3.5,3.5,83,0.00,CLR,,0.03,WeatherDisplay:10.37,2013-02-28 20:19:00,
2013-02-28 15:24:00,34.2,29.5,29.64,WSW,248,1.1,1.3,83,0.00,CLR,,0.03,WeatherDisplay:10.37,2013-02-28 20:24:00,
2013-02-28 15:29:00,34.2,29.5,29.64,SW,225,2.3,2.3,83,0.00,CLR,,0.03,WeatherDisplay:10.37,2013-02-28 20:29:00,
2013-02-28 15:34:00,33.8,29.2,29.64,South,180,1.1,1.3,83,0.00,CLR,,0.03,WeatherDisplay:10.37,2013-02-28 20:34:00,
2013-02-28 15:39:00,33.6,29.0,29.64,West,270,1.1,1.1,83,0.00,CLR,,0.03,WeatherDisplay:10.37,2013-02-28 20:39:00,
2013-02-28 15:44:00,33.6,29.0,29.64,WSW,248,3.5,3.5,83,0.00,CLR,,0.03,WeatherDisplay:10.37,2013-02-28 20:44:00,
2013-02-28 15:49:00,33.6,29.0,29.64,West,270,2.3,2.3,83,0.00,CLR,,0.03,WeatherDisplay:10.37,2013-02-28 20:49:00,
2013-02-28 15:54:00,33.6,29.0,29.64,West,270,3.5,3.5,83,0.00,CLR,,0.03,WeatherDisplay:10.37,2013-02-28 20:54:00,
2013-02-28 15:59:00,33.6,29.0,29.65,WSW,248,2.3,2.3,83,0.00,CLR,,0.03,WeatherDisplay:10.37,2013-02-28 20:59:00,
2013-02-28 16:04:00,33.8,29.2,29.65,West,270,3.5,3.5,83,0.00,CLR,,0.03,WeatherDisplay:10.37,2013-02-28 21:04:00,
2013-02-28 16:09:00,33.6,29.0,29.65,WNW,292,2.3,2.3,83,0.00,CLR,,0.03,WeatherDisplay:10.37,2013-02-28 21:09:00,
2013-02-28 16:14:00,33.8,29.2,29.65,SW,225,2.3,2.3,83,0.00,CLR,,0.03,WeatherDisplay:10.37,2013-02-28 21:14:00,
2013-02-28 16:19:00,33.8,29.5,29.65,SSW,202,1.5,1.5,84,0.00,CLR,,0.03,WeatherDisplay:10.37,2013-02-28 21:19:00,
2013-02-28 16:24:00,33.8,29.5,29.65,WSW,248,2.3,2.3,84,0.00,CLR,,0.03,WeatherDisplay:10.37,2013-02-28 21:24:00,
2013-02-28 16:29:00,33.8,29.5,29.65,WSW,248,2.3,2.3,84,0.00,CLR,,0.03,WeatherDisplay:10.37,2013-02-28 21:29:00,
2013-02-28 16:34:00,34.2,29.8,29.65,WNW,292,2.3,2.3,84,0.00,CLR,,0.03,WeatherDisplay:10.37,2013-02-28 21:34:00,
2013-02-28 16:39:00,34.0,29.7,29.65,West,270,2.3,2.3,84,0.00,CLR,,0.03,WeatherDisplay:10.37,2013-02-28 21:39:00,
2013-02-28 16:44:00,34.0,29.7,29.65,SSW,202,2.3,2.3,84,0.00,CLR,,0.03,WeatherDisplay:10.37,2013-02-28 21:44:00,
2013-02-28 16:49:00,34.0,29.7,29.65,WSW,248,0.0,0.8,84,0.00,CLR,,0.03,WeatherDisplay:10.37,2013-02-28 21:49:00,
2013-02-28 16:54:00,34.0,29.7,29.65,SW,225,2.3,2.3,84,0.00,CLR,,0.03,WeatherDisplay:10.37,2013-02-28 21:54:00,
2013-02-28 16:59:00,34.0,29.7,29.66,SSW,202,1.1,1.1,84,0.00,CLR,,0.03,WeatherDisplay:10.37,2013-02-28 21:59:00,
2013-02-28 17:04:00,33.8,29.5,29.66,SSW,202,0.0,0.0,84,0.00,CLR,,0.03,WeatherDisplay:10.37,2013-02-28 22:04:00,
2013-02-28 17:09:00,33.8,29.5,29.66,West,270,2.3,2.3,84,0.00,CLR,,0.03,WeatherDisplay:10.37,2013-02-28 22:09:00,
2013-02-28 17:14:00,33.8,29.5,29.66,SW,225,1.1,1.1,84,0.00,CLR,,0.03,WeatherDisplay:10.37,2013-02-28 22:14:00,
2013-02-28 17:19:00,33.8,29.5,29.67,West,270,0.0,0.0,84,0.00,CLR,,0.03,WeatherDisplay:10.37,2013-02-28 22:19:00,
2013-02-28 17:24:00,33.6,29.3,29.67,WSW,248,2.2,2.2,84,0.00,CLR,,0.03,WeatherDisplay:10.37,2013-02-28 22:24:00,
2013-02-28 17:29:00,33.6,29.3,29.67,West,270,1.1,1.1,84,0.00,CLR,,0.03,WeatherDisplay:10.37,2013-02-28 22:29:00,
2013-02-28 17:34:00,33.6,29.3,29.67,SSW,202,2.3,2.3,84,0.00,CLR,,0.03,WeatherDisplay:10.37,2013-02-28 22:34:00,
2013-02-28 17:39:00,33.6,29.3,29.68,South,180,2.3,2.3,84,0.00,CLR,,0.03,WeatherDisplay:10.37,2013-02-28 22:39:00,
2013-02-28 17:44:00,33.6,29.3,29.68,SW,225,0.0,0.5,84,0.00,CLR,,0.03,WeatherDisplay:10.37,2013-02-28 22:44:00,
2013-02-28 17:49:00,33.6,29.3,29.68,West,270,2.3,2.3,84,0.00,CLR,,0.03,WeatherDisplay:10.37,2013-02-28 22:49:00,
2013-02-28 17:54:00,33.6,29.3,29.68,SW,225,1.1,1.1,84,0.00,CLR,,0.03,WeatherDisplay:10.37,2013-02-28 22:54:00,
2013-02-28 17:59:00,33.6,29.3,29.69,SSW,202,0.0,0.0,84,0.00,CLR,,0.03,WeatherDisplay:10.37,2013-02-28 22:59:00,
2013-02-28 18:04:00,33.6,29.3,29.69,West,270,0.0,0.0,84,0.00,CLR,,0.03,WeatherDisplay:10.37,2013-02-28 23:04:00,
2013-02-28 18:09:00,33.6,29.3,29.69,SSW,202,0.0,0.0,84,0.00,CLR,,0.03,WeatherDisplay:10.37,2013-02-28 23:09:00,
2013-02-28 18:14:00,33.6,29.3,29.69,South,180,0.0,0.0,84,0.03,RA,,0.06,WeatherDisplay:10.37,2013-02-28 23:14:00,
2013-02-28 18:19:00,33.6,29.3,29.70,SSW,202,1.1,1.1,84,0.03,RA,,0.06,WeatherDisplay:10.37,2013-02-28 23:19:00,
2013-02-28 18:24:00,33.6,29.3,29.70,NNE,22,0.0,0.0,84,0.03,,,0.06,WeatherDisplay:10.37,2013-02-28 23:24:00,
2013-02-28 18:29:00,33.6,29.3,29.70,South,180,0.0,0.0,84,0.03,CLR,,0.06,WeatherDisplay:10.37,2013-02-28 23:29:00,
2013-02-28 18:34:00,33.6,29.3,29.70,SW,225,1.1,0.0,84,0.03,CLR,,0.06,WeatherDisplay:10.37,2013-02-28 23:34:00,
2013-02-28 18:39:00,33.6,29.3,29.70,SE,135,2.3,2.3,84,0.03,CLR,,0.06,WeatherDisplay:10.37,2013-02-28 23:39:00,
2013-02-28 18:44:00,33.6,29.3,29.70,SW,225,0.0,0.0,84,0.03,CLR,,0.06,WeatherDisplay:10.37,2013-02-28 23:44:00,
2013-02-28 18:49:00,33.8,29.5,29.70,WSW,248,2.3,2.3,84,0.03,CLR,,0.06,WeatherDisplay:10.37,2013-02-28 23:49:00,
2013-02-28 18:55:00,33.8,29.5,29.70,WSW,248,0.0,0.0,84,0.03,CLR,,0.06,WeatherDisplay:10.37,2013-02-28 23:55:00,
2013-02-28 19:00:00,33.8,29.5,29.71,WSW,248,1.5,1.5,84,0.03,CLR,,0.06,WeatherDisplay:10.37,2013-03-01 00:00:00,
2013-02-28 19:05:00,33.8,29.5,29.71,WSW,248,1.1,1.1,84,0.03,CLR,,0.06,WeatherDisplay:10.37,2013-03-01 00:05:00,
2013-02-28 19:10:00,34.0,29.7,29.71,WSW,248,2.3,2.3,84,0.03,CLR,,0.06,WeatherDisplay:10.37,2013-03-01 00:10:00,
2013-02-28 19:15:00,34.0,29.7,29.71,NNW,338,1.1,0.0,84,0.00,CLR,,0.06,WeatherDisplay:10.37,2013-03-01 00:15:00,
2013-02-28 19:20:00,34.0,29.7,29.72,West,270,2.3,2.3,84,0.00,CLR,,0.06,WeatherDisplay:10.37,2013-03-01 00:20:00,
2013-02-28 19:25:00,34.0,29.7,29.72,West,259,1.0,3.0,84,0.00,CLR,,0.05,WeatherDisplay:10.37,2013-03-01 00:25:00,
2013-02-28 19:30:00,34.0,29.7,29.72,SW,225,2.3,2.3,84,0.00,CLR,,0.06,WeatherDisplay:10.37,2013-03-01 00:30:00,
2013-02-28 19:35:00,34.0,29.7,29.72,SW,225,2.3,2.3,84,0.00,CLR,,0.06,WeatherDisplay:10.37,2013-03-01 00:35:00,
2013-02-28 19:40:00,34.0,29.7,29.73,WSW,248,2.3,2.3,84,0.00,CLR,,0.06,WeatherDisplay:10.37,2013-03-01 00:40:00,
2013-02-28 19:45:00,33.8,29.5,29.73,WNW,292,3.5,3.5,84,0.00,CLR,,0.06,WeatherDisplay:10.37,2013-03-01 00:45:00,
2013-02-28 19:50:00,33.8,29.5,29.73,West,270,1.3,1.4,84,0.00,CLR,,0.06,WeatherDisplay:10.37,2013-03-01 00:50:00,
2013-02-28 19:55:00,33.8,29.5,29.73,WSW,248,3.5,3.5,84,0.00,CLR,,0.06,WeatherDisplay:10.37,2013-03-01 00:55:00,
2013-02-28 20:00:00,33.6,29.3,29.73,West,270,2.3,2.3,84,0.00,CLR,,0.06,WeatherDisplay:10.37,2013-03-01 01:00:00,
2013-02-28 20:05:00,33.6,29.3,29.73,West,270,2.8,2.8,84,0.00,CLR,,0.06,WeatherDisplay:10.37,2013-03-01 01:05:00,
2013-02-28 20:10:00,33.6,29.3,29.73,WNW,292,4.6,4.6,84,0.00,CLR,,0.06,WeatherDisplay:10.37,2013-03-01 01:10:00,
2013-02-28 20:15:00,33.6,29.3,29.73,SW,225,2.0,2.0,84,0.00,CLR,,0.06,WeatherDisplay:10.37,2013-03-01 01:15:00,
2013-02-28 20:20:00,33.6,29.3,29.75,NW,315,2.8,2.8,84,0.00,CLR,,0.06,WeatherDisplay:10.37,2013-03-01 01:20:00,
2013-02-28 20:25:00,33.8,29.5,29.75,West,270,3.5,3.5,84,0.00,CLR,,0.06,WeatherDisplay:10.37,2013-03-01 01:25:00,
2013-02-28 20:30:00,34.0,29.7,29.75,WSW,248,4.6,4.6,84,0.00,CLR,,0.06,WeatherDisplay:10.37,2013-03-01 01:30:00,
2013-02-28 20:35:00,33.6,29.3,29.75,SW,225,3.5,3.5,84,0.00,CLR,,0.06,WeatherDisplay:10.37,2013-03-01 01:35:00,
2013-02-28 20:40:00,33.8,29.5,29.74,SW,225,1.1,1.4,84,0.00,CLR,,0.06,WeatherDisplay:10.37,2013-03-01 01:40:00,
2013-02-28 20:45:00,33.6,29.3,29.74,West,270,2.3,2.3,84,0.00,CLR,,0.06,WeatherDisplay:10.37,2013-03-01 01:45:00,
2013-02-28 20:50:00,33.6,29.3,29.74,WSW,248,3.5,3.5,84,0.00,CLR,,0.06,WeatherDisplay:10.37,2013-03-01 01:50:00,
2013-02-28 20:55:00,33.4,29.1,29.74,WSW,248,3.5,3.5,84,0.00,CLR,,0.06,WeatherDisplay:10.37,2013-03-01 01:55:00,
2013-02-28 21:00:00,33.4,29.1,29.74,NNW,338,2.3,2.3,84,0.00,CLR,,0.08,WeatherDisplay:10.37,2013-03-01 02:00:00,
2013-02-28 21:05:00,33.3,28.9,29.74,West,270,2.3,2.3,84,0.03,RA,,0.08,WeatherDisplay:10.37,2013-03-01 02:05:00,
2013-02-28 21:10:00,33.1,28.8,29.74,West,270,3.5,3.5,84,0.03,RA,,0.08,WeatherDisplay:10.37,2013-03-01 02:10:00,
2013-02-28 21:15:00,33.1,28.8,29.74,NNE,22,2.3,2.3,84,0.03,CLR,,0.08,WeatherDisplay:10.37,2013-03-01 02:15:00,
2013-02-28 21:20:00,33.1,28.8,29.75,West,270,3.5,3.5,84,0.03,CLR,,0.08,WeatherDisplay:10.37,2013-03-01 02:20:00,
2013-02-28 21:25:00,33.3,28.9,29.75,South,180,1.1,1.3,84,0.03,CLR,,0.08,WeatherDisplay:10.37,2013-03-01 02:25:00,
2013-02-28 21:30:00,33.3,28.9,29.75,NW,315,2.3,2.3,84,0.03,CLR,,0.08,WeatherDisplay:10.37,2013-03-01 02:30:00,
2013-02-28 21:35:00,33.3,28.9,29.75,NW,315,5.8,5.8,84,0.03,CLR,,0.08,WeatherDisplay:10.37,2013-03-01 02:35:00,
2013-02-28 21:40:00,33.1,28.8,29.75,SW,225,6.9,6.9,84,0.03,CLR,,0.08,WeatherDisplay:10.37,2013-03-01 02:40:00,
2013-02-28 21:45:00,33.1,28.8,29.75,NNW,338,2.3,2.3,84,0.03,CLR,,0.08,WeatherDisplay:10.37,2013-03-01 02:45:00,
2013-02-28 21:50:00,33.1,28.8,29.75,NE,45,4.6,4.6,84,0.03,CLR,,0.08,WeatherDisplay:10.37,2013-03-01 02:50:00,
2013-02-28 21:55:00,33.1,28.8,29.75,NW,315,4.6,4.6,84,0.03,CLR,,0.08,WeatherDisplay:10.37,2013-03-01 02:55:00,
2013-02-28 22:00:00,32.9,28.6,29.76,NNW,338,4.6,4.6,84,0.03,CLR,,0.08,WeatherDisplay:10.37,2013-03-01 03:00:00,
2013-02-28 22:05:00,32.9,28.6,29.76,West,270,3.5,3.5,84,0.00,CLR,,0.08,WeatherDisplay:10.37,2013-03-01 03:05:00,
2013-02-28 22:10:00,32.9,28.6,29.76,ENE,68,5.8,5.8,84,0.00,CLR,,0.08,WeatherDisplay:10.37,2013-03-01 03:10:00,
2013-02-28 22:15:00,32.9,28.6,29.76,SE,135,4.6,4.6,84,0.00,CLR,,0.08,WeatherDisplay:10.37,2013-03-01 03:15:00,
2013-02-28 22:20:00,32.7,28.4,29.76,NW,315,5.8,5.8,84,0.00,CLR,,0.08,WeatherDisplay:10.37,2013-03-01 03:20:00,
2013-02-28 22:25:00,32.5,28.2,29.76,NE,45,3.5,3.5,84,0.00,CLR,,0.08,WeatherDisplay:10.37,2013-03-01 03:25:00,
2013-02-28 22:30:00,32.5,28.2,29.76,NNW,338,3.5,3.5,84,0.00,CLR,,0.08,WeatherDisplay:10.37,2013-03-01 03:30:00,
2013-02-28 22:36:00,32.5,28.5,29.76,NW,315,5.8,5.8,85,0.00,CLR,,0.08,WeatherDisplay:10.37,2013-03-01 03:36:00,
2013-02-28 22:41:00,32.5,28.2,29.77,SSW,202,4.6,4.6,84,0.00,CLR,,0.08,WeatherDisplay:10.37,2013-03-01 03:41:00,
2013-02-28 22:46:00,32.5,28.5,29.77,NNW,338,4.6,4.6,85,0.00,CLR,,0.08,WeatherDisplay:10.37,2013-03-01 03:46:00,
2013-02-28 22:51:00,32.4,28.4,29.77,NW,315,3.5,3.5,85,0.00,CLR,,0.08,WeatherDisplay:10.37,2013-03-01 03:51:00,
2013-02-28 22:56:00,32.4,28.4,29.77,North,0,3.5,3.5,85,0.00,CLR,,0.08,WeatherDisplay:10.37,2013-03-01 03:56:00,
2013-02-28 23:01:00,32.4,28.4,29.77,NNE,22,3.5,3.5,85,0.00,CLR,,0.08,WeatherDisplay:10.37,2013-03-01 04:01:00,
2013-02-28 23:06:00,32.4,28.4,29.77,NNE,22,4.6,4.6,85,0.00,CLR,,0.08,WeatherDisplay:10.37,2013-03-01 04:06:00,
2013-02-28 23:11:00,32.4,28.4,29.77,NNE,22,3.5,3.5,85,0.00,CLR,,0.08,WeatherDisplay:10.37,2013-03-01 04:11:00,
2013-02-28 23:16:00,32.2,28.2,29.77,NNE,22,3.5,3.5,85,0.00,CLR,,0.08,WeatherDisplay:10.37,2013-03-01 04:16:00,
2013-02-28 23:21:00,32.2,28.2,29.77,NNE,22,2.3,2.3,85,0.00,CLR,,0.08,WeatherDisplay:10.37,2013-03-01 04:21:00,
2013-02-28 23:26:00,32.2,28.2,29.77,NNE,22,2.6,2.6,85,0.00,CLR,,0.08,WeatherDisplay:10.37,2013-03-01 04:26:00,
2013-02-28 23:31:00,32.2,28.2,29.77,NNE,22,4.6,4.6,85,0.00,CLR,,0.08,WeatherDisplay:10.37,2013-03-01 04:31:00,
2013-02-28 23:36:00,32.2,28.2,29.77,NNE,22,3.5,3.5,85,0.00,CLR,,0.08,WeatherDisplay:10.37,2013-03-01 04:36:00,
2013-02-28 23:41:00,32.2,28.2,29.78,NNE,22,4.6,4.6,85,0.00,CLR,,0.08,WeatherDisplay:10.37,2013-03-01 04:41:00,
2013-02-28 23:46:00,32.2,28.2,29.78,NNE,22,4.6,4.6,85,0.00,CLR,,0.08,WeatherDisplay:10.37,2013-03-01 04:46:00,
2013-02-28 23:51:00,32.2,28.2,29.78,NNE,22,3.5,3.5,85,0.00,CLR,,0.08,WeatherDisplay:10.37,2013-03-01 04:51:00,
2013-02-28 23:56:00,32.2,28.2,29.78,NNE,22,3.5,3.5,85,0.00,CLR,,0.08,WeatherDisplay:10.37,2013-03-01 04:56:00,